createdAt,value
2023-02-23T00:02:55.977Z,14.37
2023-02-23T00:06:59.930Z,15.60
2023-02-23T00:11:05.519Z,16.17
2023-02-23T00:15:09.926Z,17.60
2023-02-23T00:19:14.212Z,20.27
2023-02-23T00:23:17.291Z,14.67
2023-02-23T00:27:22.075Z,16.43
2023-02-23T00:31:30.930Z,13.67
2023-02-23T00:35:34.680Z,17.93
2023-02-23T00:39:38.285Z,18.47
2023-02-23T00:43:47.580Z,17.03
2023-02-23T00:47:51.877Z,18.03
2023-02-23T00:51:58.527Z,16.80
2023-02-23T00:56:01.561Z,13.37
2023-02-23T01:00:15.126Z,14.80
2023-02-23T01:04:18.429Z,16.50
2023-02-23T01:08:22.442Z,17.20
2023-02-23T01:12:25.490Z,12.53
2023-02-23T01:16:36.647Z,13.47
2023-02-23T01:20:42.518Z,14.17
2023-02-23T01:24:45.575Z,12.50
2023-02-23T01:28:50.661Z,14.80
2023-02-23T01:32:58.269Z,18.00
2023-02-23T01:37:01.264Z,22.80
2023-02-23T01:41:04.974Z,16.30
2023-02-23T01:45:24.924Z,14.93
2023-02-23T01:49:34.548Z,14.63
2023-02-23T01:53:44.115Z,12.97
2023-02-23T01:57:53.561Z,12.87
2023-02-23T02:01:59.997Z,14.93
2023-02-23T02:06:10.989Z,14.80
2023-02-23T02:10:34.228Z,12.77
2023-02-23T02:14:38.674Z,12.53
2023-02-23T02:18:57.401Z,12.93
2023-02-23T02:23:29.561Z,12.33
2023-02-23T02:28:04.327Z,18.97
2023-02-23T02:32:47.907Z,18.43
2023-02-23T02:37:21.010Z,13.63
2023-02-23T02:41:35.640Z,14.33
2023-02-23T02:45:49.895Z,12.10
2023-02-23T02:50:08.486Z,18.73
2023-02-23T02:54:29.447Z,13.60
2023-02-23T02:58:34.796Z,15.17
2023-02-23T03:02:58.687Z,13.47
2023-02-23T03:07:28.604Z,13.57
2023-02-23T03:11:58.302Z,16.50
2023-02-23T03:16:28.888Z,15.87
2023-02-23T03:21:01.781Z,14.80
2023-02-23T03:25:29.175Z,13.87
2023-02-23T03:29:59.215Z,17.40
2023-02-23T03:34:29.031Z,14.63
2023-02-23T03:38:59.058Z,15.63
2023-02-23T03:43:21.344Z,14.93
2023-02-23T03:47:51.347Z,13.57
2023-02-23T03:52:17.070Z,13.43
2023-02-23T03:56:40.176Z,16.50
2023-02-23T04:01:04.320Z,14.33
2023-02-23T04:05:30.172Z,16.43
2023-02-23T04:09:51.499Z,14.70
2023-02-23T04:14:01.024Z,13.87
2023-02-23T04:18:08.143Z,14.57
2023-02-23T04:22:15.416Z,18.40
2023-02-23T04:26:18.450Z,15.00
2023-02-23T04:30:26.369Z,15.43
2023-02-23T04:34:32.752Z,15.97
2023-02-23T04:38:37.337Z,16.30
2023-02-23T04:42:41.271Z,14.90
2023-02-23T04:46:44.793Z,17.73
2023-02-23T04:50:47.823Z,14.67
2023-02-23T04:54:52.250Z,15.90
2023-02-23T04:58:56.348Z,17.60
2023-02-23T05:03:02.757Z,15.47
2023-02-23T05:07:06.270Z,17.40
2023-02-23T05:11:11.740Z,15.17
2023-02-23T05:15:15.796Z,14.23
2023-02-23T05:19:18.826Z,18.60
2023-02-23T05:23:24.164Z,20.70
2023-02-23T05:27:32.550Z,18.43
2023-02-23T05:31:36.363Z,14.03
2023-02-23T05:35:41.225Z,17.13
2023-02-23T05:39:44.601Z,15.93
2023-02-23T05:43:55.279Z,19.40
2023-02-23T05:48:00.658Z,19.80
2023-02-23T05:52:03.945Z,17.87
2023-02-23T05:56:13.481Z,15.07
2023-02-23T06:00:22.892Z,15.33
2023-02-23T06:04:25.959Z,16.53
2023-02-23T06:08:34.116Z,16.93
2023-02-23T06:12:37.557Z,17.53
2023-02-23T06:16:45.372Z,16.07
2023-02-23T06:20:57.588Z,19.30
2023-02-23T06:25:05.697Z,16.03
2023-02-23T06:29:12.213Z,19.87
2023-02-23T06:33:17.149Z,18.27
2023-02-23T06:37:20.170Z,18.47
2023-02-23T06:41:29.509Z,17.73
2023-02-23T06:45:34.757Z,22.10
2023-02-23T06:49:40.503Z,19.13
2023-02-23T06:53:45.413Z,16.20
2023-02-23T06:57:51.389Z,19.20
2023-02-23T07:01:54.464Z,19.87
2023-02-23T07:05:58.999Z,24.03
2023-02-23T07:10:02.055Z,21.00
2023-02-23T07:14:05.213Z,20.60
2023-02-23T07:18:09.391Z,15.40
2023-02-23T07:22:15.184Z,14.53
2023-02-23T07:26:20.534Z,19.60
2023-02-23T07:30:25.162Z,16.03
2023-02-23T07:34:30.957Z,17.37
2023-02-23T07:38:35.662Z,17.43
2023-02-23T07:42:38.970Z,25.27
2023-02-23T07:46:42.214Z,15.87
2023-02-23T07:50:47.377Z,18.03
2023-02-23T07:54:52.158Z,29.63
2023-02-23T07:58:57.104Z,19.57
2023-02-23T08:03:02.986Z,25.90
2023-02-23T08:07:06.117Z,25.83
2023-02-23T08:11:13.124Z,17.00
2023-02-23T08:15:21.014Z,21.20
2023-02-23T08:19:28.950Z,22.60
2023-02-23T08:23:32.720Z,24.08
2023-02-23T08:27:38.129Z,25.17
2023-02-23T08:31:41.292Z,25.48
2023-02-23T08:35:45.305Z,24.03
2023-02-23T08:39:48.407Z,30.73
2023-02-23T08:43:53.300Z,42.92
2023-02-23T08:47:58.899Z,51.72
2023-02-23T08:52:01.954Z,44.53
2023-02-23T08:56:10.510Z,43.58
2023-02-23T09:00:19.501Z,39.03
2023-02-23T09:04:22.615Z,40.78
2023-02-23T09:08:26.943Z,42.55
2023-02-23T09:12:31.563Z,42.00
2023-02-23T09:16:36.305Z,48.85
2023-02-23T09:20:42.724Z,42.92
2023-02-23T09:24:46.309Z,44.83
2023-02-23T09:28:49.558Z,41.90
2023-02-23T09:32:58.447Z,43.70
2023-02-23T09:37:06.509Z,46.25
2023-02-23T09:41:32.094Z,39.20
2023-02-23T09:45:44.880Z,42.58
2023-02-23T09:49:51.042Z,43.80
2023-02-23T09:54:01.954Z,50.15
2023-02-23T09:58:11.308Z,45.83
2023-02-23T10:02:25.748Z,43.40
2023-02-23T10:06:37.856Z,46.10
2023-02-23T10:10:48.530Z,44.67
2023-02-23T10:15:06.715Z,46.55
2023-02-23T10:19:20.531Z,46.63
2023-02-23T10:23:31.346Z,51.95
2023-02-23T10:27:42.149Z,44.85
2023-02-23T10:31:51.058Z,47.05
2023-02-23T10:36:12.527Z,52.10
2023-02-23T10:40:23.576Z,49.95
2023-02-23T10:44:29.764Z,53.45
2023-02-23T10:48:42.058Z,42.55
2023-02-23T10:52:47.973Z,52.13
2023-02-23T10:56:54.089Z,45.28
2023-02-23T11:01:01.131Z,53.47
2023-02-23T11:05:27.053Z,45.75
2023-02-23T11:09:46.176Z,57.55
2023-02-23T11:13:53.073Z,50.45
2023-02-23T11:18:02.678Z,50.97
2023-02-23T11:22:15.224Z,62.60
2023-02-23T11:26:32.450Z,55.72
2023-02-23T11:30:44.777Z,53.10
2023-02-23T11:34:49.632Z,53.25
2023-02-23T11:39:04.288Z,51.22
2023-02-23T11:43:11.059Z,55.47
2023-02-23T11:47:26.249Z,59.15
2023-02-23T11:51:37.265Z,54.55
2023-02-23T11:55:49.698Z,46.30
2023-02-23T11:59:55.594Z,50.28
2023-02-23T12:04:29.268Z,47.30
2023-02-23T12:08:41.523Z,43.35
2023-02-23T12:13:01.459Z,40.15
2023-02-23T12:17:09.830Z,39.47
2023-02-23T12:21:31.419Z,34.63
2023-02-23T12:25:40.036Z,29.52
2023-02-23T12:29:53.539Z,25.67
2023-02-23T12:34:01.855Z,27.45
2023-02-23T12:38:12.929Z,19.88
2023-02-23T12:42:22.328Z,21.08
2023-02-23T12:46:29.329Z,21.27
2023-02-23T12:50:35.695Z,18.50
2023-02-23T12:54:40.554Z,28.27
2023-02-23T12:58:52.288Z,24.42
2023-02-23T13:03:25.366Z,23.27
2023-02-23T13:07:36.767Z,17.13
2023-02-23T13:12:14.028Z,14.02
2023-02-23T13:16:27.536Z,13.55
2023-02-23T13:20:36.575Z,17.20
2023-02-23T13:24:43.760Z,13.52
2023-02-23T13:28:57.364Z,16.20
2023-02-23T13:33:05.157Z,17.67
2023-02-23T13:37:12.361Z,14.60
2023-02-23T13:41:34.270Z,17.60
2023-02-23T13:45:46.349Z,14.52
2023-02-23T13:49:56.309Z,21.05
2023-02-23T13:54:24.408Z,24.52
2023-02-23T13:58:31.047Z,22.02
2023-02-23T14:02:41.511Z,18.02
2023-02-23T14:06:56.702Z,18.23
2023-02-23T14:11:04.958Z,20.42
2023-02-23T14:15:42.464Z,18.75
2023-02-23T14:20:09.848Z,23.00
2023-02-23T14:24:21.151Z,19.77
2023-02-23T14:28:31.310Z,20.67
2023-02-23T14:32:40.081Z,19.83
2023-02-23T14:36:47.081Z,26.85
2023-02-23T14:40:51.801Z,19.42
2023-02-23T14:44:57.222Z,17.95
2023-02-23T14:49:05.637Z,19.27
2023-02-23T14:53:22.427Z,20.92
2023-02-23T14:57:44.666Z,18.75
2023-02-23T15:01:48.759Z,21.10
2023-02-23T15:05:54.997Z,19.05
2023-02-23T15:10:01.371Z,24.05
2023-02-23T15:14:08.801Z,23.38
2023-02-23T15:18:29.285Z,24.25
2023-02-23T15:22:35.524Z,25.60
2023-02-23T15:26:43.804Z,25.40
2023-02-23T15:30:48.988Z,28.08
2023-02-23T15:34:53.223Z,21.17
2023-02-23T15:39:00.465Z,23.98
2023-02-23T15:43:05.105Z,22.90
2023-02-23T15:47:16.861Z,21.13
2023-02-23T15:51:34.041Z,32.67
2023-02-23T15:55:40.728Z,22.58
2023-02-23T15:59:48.557Z,35.50
2023-02-23T16:04:00.614Z,27.88
2023-02-23T16:08:26.015Z,20.10
2023-02-23T16:12:34.769Z,19.77
2023-02-23T16:16:39.458Z,25.55
2023-02-23T16:20:47.028Z,25.20
2023-02-23T16:25:00.474Z,24.58
2023-02-23T16:29:07.442Z,28.65
2023-02-23T16:33:19.925Z,33.53
2023-02-23T16:37:31.206Z,29.70
2023-02-23T16:41:38.159Z,33.15
2023-02-23T16:45:43.046Z,30.90
2023-02-23T16:49:48.088Z,30.02
2023-02-23T16:53:52.605Z,36.70
2023-02-23T16:58:01.055Z,30.45
2023-02-23T17:02:09.838Z,39.00
2023-02-23T17:06:14.307Z,33.22
2023-02-23T17:10:25.193Z,32.10
2023-02-23T17:14:31.966Z,31.25
2023-02-23T17:18:43.005Z,29.27
2023-02-23T17:22:50.757Z,30.63
2023-02-23T17:26:57.857Z,28.27
2023-02-23T17:31:04.026Z,29.65
2023-02-23T17:35:10.072Z,37.42
2023-02-23T17:39:16.897Z,34.75
2023-02-23T17:43:23.230Z,36.17
2023-02-23T17:47:29.870Z,39.90
2023-02-23T17:51:43.747Z,33.63
2023-02-23T17:55:51.362Z,46.50
2023-02-23T17:59:55.553Z,38.97
2023-02-23T18:04:02.780Z,45.08
2023-02-23T18:08:10.572Z,40.13
2023-02-23T18:12:15.015Z,46.55
2023-02-23T18:16:18.942Z,162.75
2023-02-23T18:20:22.370Z,47.88
2023-02-23T18:24:28.684Z,40.72
2023-02-23T18:28:33.375Z,50.88
2023-02-23T18:32:39.357Z,50.35
2023-02-23T18:36:43.604Z,52.90
2023-02-23T18:40:49.206Z,58.58
2023-02-23T18:44:57.142Z,54.20
2023-02-23T18:49:03.759Z,56.47
2023-02-23T18:53:09.801Z,60.13
2023-02-23T18:57:14.271Z,58.08
2023-02-23T19:01:22.619Z,54.97
2023-02-23T19:05:26.001Z,60.17
2023-02-23T19:09:29.136Z,62.80
2023-02-23T19:13:38.129Z,67.03
2023-02-23T19:17:43.208Z,76.47
2023-02-23T19:21:49.261Z,84.20
2023-02-23T19:25:52.672Z,72.45
2023-02-23T19:29:56.787Z,66.03
2023-02-23T19:34:05.180Z,91.78
2023-02-23T19:38:09.995Z,75.78
2023-02-23T19:42:18.400Z,82.07
2023-02-23T19:46:21.433Z,92.95
2023-02-23T19:50:25.839Z,80.20
2023-02-23T19:54:38.030Z,76.40
2023-02-23T19:58:44.770Z,82.40
2023-02-23T20:02:54.974Z,80.28
2023-02-23T20:06:59.591Z,83.60
2023-02-23T20:11:07.071Z,67.60
2023-02-23T20:15:15.286Z,77.80
2023-02-23T20:19:19.848Z,238.75
2023-02-23T20:23:26.843Z,559.75
2023-02-23T20:27:30.090Z,333.88
2023-02-23T20:31:36.956Z,128.13
2023-02-23T20:35:45.069Z,122.93
2023-02-23T20:39:49.515Z,258.10
2023-02-23T20:43:52.711Z,191.07
2023-02-23T20:47:58.611Z,213.43
2023-02-23T20:52:03.345Z,603.42
2023-02-23T20:56:10.395Z,509.63
2023-02-23T21:00:23.326Z,401.10
2023-02-23T21:04:26.835Z,326.02
2023-02-23T21:08:30.186Z,109.18
2023-02-23T21:12:35.687Z,240.13
2023-02-23T21:16:40.941Z,489.00
2023-02-23T21:20:44.918Z,259.52
2023-02-23T21:24:51.479Z,432.33
2023-02-23T21:28:59.082Z,350.85
2023-02-23T21:33:06.212Z,108.43
2023-02-23T21:37:11.905Z,564.25
2023-02-23T21:41:17.394Z,819.88
2023-02-23T21:45:24.183Z,712.78
2023-02-23T21:49:30.289Z,813.85
2023-02-23T21:53:33.623Z,735.58
2023-02-23T21:57:36.698Z,885.83
2023-02-23T22:01:44.991Z,856.75
2023-02-23T22:05:51.042Z,710.57
2023-02-23T22:09:54.993Z,784.33
2023-02-23T22:13:59.954Z,671.17
2023-02-23T22:18:05.797Z,646.00
2023-02-23T22:22:08.798Z,819.03
2023-02-23T22:26:12.126Z,853.53
2023-02-23T22:30:16.993Z,516.85
2023-02-23T22:34:29.000Z,363.70
2023-02-23T22:38:32.012Z,414.17
2023-02-23T22:42:36.421Z,503.90
2023-02-23T22:46:40.174Z,147.07
2023-02-23T22:50:45.219Z,169.77
2023-02-23T22:54:48.225Z,529.72
2023-02-23T22:58:54.379Z,377.67
2023-02-23T23:03:02.221Z,363.40
2023-02-23T23:07:08.683Z,159.10
2023-02-23T23:11:13.821Z,164.25
2023-02-23T23:15:22.613Z,543.72
2023-02-23T23:19:27.043Z,128.57
2023-02-23T23:23:34.943Z,124.72
2023-02-23T23:27:41.478Z,144.82
2023-02-23T23:31:49.138Z,108.73
2023-02-23T23:35:54.522Z,161.82
2023-02-23T23:40:14.456Z,151.77
2023-02-23T23:44:18.840Z,126.82
2023-02-23T23:48:21.850Z,102.23
2023-02-23T23:52:30.015Z,117.23
2023-02-23T23:56:37.394Z,95.80
